Time;durP1;ratioP1;P1;durP2;ratioP2;P2;SDS_P1;SDS_P2;PMS_P1;PMS_P2;Temp;Humidity;BMP_temperature;BMP_pressure;BME280_temperature;BME280_humidity;BME280_pressure;Samples;Min_cycle;Max_cycle;Signal;HPM_P1;HPM_P2
2022/05/20 00:00:32;;;;;;;2.35;0.93;;;24.90;40.90;;;;;;5003295;28;20029;-53
2022/05/20 00:02:58;;;;;;;1.77;0.90;;;24.80;40.70;;;;;;5003514;28;20451;-53
2022/05/20 00:05:24;;;;;;;1.65;0.77;;;24.90;40.80;;;;;;5003105;28;20054;-52
2022/05/20 00:07:50;;;;;;;1.70;0.70;;;24.80;40.70;;;;;;5003715;28;20026;-51
2022/05/20 00:10:17;;;;;;;2.28;1.00;;;24.80;40.70;;;;;;5006725;28;20554;-52
2022/05/20 00:12:44;;;;;;;1.95;0.93;;;24.80;40.70;;;;;;5005605;28;20255;-53
2022/05/20 00:15:13;;;;;;;1.98;0.70;;;24.80;40.70;;;;;;5006624;28;20026;-52
2022/05/20 00:17:39;;;;;;;2.30;1.00;;;24.80;40.80;;;;;;5006747;28;20103;-53
2022/05/20 00:20:06;;;;;;;1.35;0.63;;;24.80;40.70;;;;;;5006293;28;20033;-53
2022/05/20 00:22:32;;;;;;;2.38;1.13;;;24.80;40.80;;;;;;5006390;28;20033;-52
2022/05/20 00:27:42;;;;;;;1.42;0.63;;;24.80;40.90;;;;;;5005220;28;20086;-51
2022/05/20 00:30:09;;;;;;;1.98;0.80;;;24.80;41.00;;;;;;5006557;28;20149;-53
2022/05/20 00:32:35;;;;;;;2.13;1.05;;;24.80;41.00;;;;;;5006681;28;20025;-53
2022/05/20 00:35:01;;;;;;;1.80;0.80;;;24.80;41.00;;;;;;5005729;28;20029;-52
2022/05/20 00:37:27;;;;;;;1.02;0.63;;;24.80;41.10;;;;;;5006204;28;20433;-53
2022/05/20 00:39:52;;;;;;;1.83;1.00;;;24.80;41.00;;;;;;5005516;28;20021;-52
2022/05/20 00:42:19;;;;;;;1.60;0.90;;;24.80;41.00;;;;;;5005653;28;20566;-53
2022/05/20 00:44:45;;;;;;;2.53;1.05;;;24.80;40.80;;;;;;5006208;28;20026;-53
2022/05/20 00:47:13;;;;;;;1.85;0.90;;;24.80;40.80;;;;;;5005880;28;20088;-53
2022/05/20 00:49:43;;;;;;;2.10;0.90;;;24.80;40.80;;;;;;5003701;28;20042;-53
2022/05/20 00:52:11;;;;;;;1.65;0.80;;;24.80;40.90;;;;;;5005027;28;20030;-53
2022/05/20 00:54:43;;;;;;;1.40;0.60;;;24.80;40.70;;;;;;5002011;28;20025;-53
2022/05/20 00:57:15;;;;;;;1.88;0.80;;;24.70;40.70;;;;;;5005337;28;20684;-52
2022/05/20 00:59:51;;;;;;;1.42;0.70;;;24.70;40.70;;;;;;5005332;28;20498;-53
2022/05/20 01:02:20;;;;;;;1.63;0.80;;;24.70;40.70;;;;;;5003904;28;20030;-52
2022/05/20 01:04:47;;;;;;;2.47;0.95;;;24.80;40.90;;;;;;5005500;28;20057;-52
2022/05/20 01:07:17;;;;;;;1.40;0.73;;;24.70;40.90;;;;;;5005415;28;20018;-53
2022/05/20 01:09:43;;;;;;;1.17;0.70;;;24.70;40.90;;;;;;5004527;28;20025;-53
2022/05/20 01:12:09;;;;;;;2.53;1.15;;;24.70;41.00;;;;;;5005696;28;20038;-53
2022/05/20 01:14:35;;;;;;;2.05;0.80;;;24.70;41.00;;;;;;5005459;28;20033;-51
2022/05/20 01:17:01;;;;;;;1.63;0.63;;;24.70;41.00;;;;;;5020003;28;20037;-53
2022/05/20 01:20:08;;;;;;;1.95;0.90;;;24.70;41.00;;;;;;5003791;28;20582;-52
2022/05/20 01:22:40;;;;;;;2.50;0.90;;;24.70;41.10;;;;;;4982737;28;20030;-52
2022/05/20 01:25:08;;;;;;;2.20;0.90;;;24.70;41.10;;;;;;4982448;28;20033;-52
2022/05/20 01:27:36;;;;;;;2.50;1.00;;;24.70;40.90;;;;;;4993928;28;20030;-53
2022/05/20 01:30:04;;;;;;;2.13;1.10;;;24.70;40.80;;;;;;5003414;28;20108;-53
2022/05/20 01:32:30;;;;;;;2.25;1.10;;;24.70;40.80;;;;;;5005393;28;20030;-53
2022/05/20 01:34:56;;;;;;;2.10;0.95;;;24.70;41.00;;;;;;5004716;28;20030;-52
2022/05/20 01:37:22;;;;;;;2.22;0.80;;;24.60;40.80;;;;;;5005011;28;20104;-53
2022/05/20 01:39:47;;;;;;;2.05;0.80;;;24.60;40.60;;;;;;5004172;28;20113;-52
2022/05/20 01:42:32;;;;;;;2.55;0.75;;;24.60;40.70;;;;;;5005341;28;20576;-53
2022/05/20 01:45:13;;;;;;;1.77;0.80;;;24.70;40.90;;;;;;5004563;28;20029;-53
2022/05/20 01:47:55;;;;;;;2.40;1.05;;;24.70;41.00;;;;;;5004933;28;20513;-54
2022/05/20 01:50:31;;;;;;;1.93;1.00;;;24.60;40.90;;;;;;5004969;28;20034;-52
2022/05/20 01:53:21;;;;;;;2.13;0.85;;;24.70;41.00;;;;;;5003793;28;20081;-53
2022/05/20 01:55:52;;;;;;;2.10;0.93;;;24.60;41.00;;;;;;5004424;28;20034;-53
2022/05/20 01:58:41;;;;;;;1.92;0.80;;;24.60;40.90;;;;;;5002960;28;20034;-53
2022/05/20 02:01:14;;;;;;;1.77;0.70;;;24.60;40.90;;;;;;4987787;28;20413;-53
2022/05/20 02:03:51;;;;;;;1.75;1.02;;;24.60;40.90;;;;;;5003086;28;20032;-52
2022/05/20 02:06:24;;;;;;;2.13;0.77;;;24.60;41.00;;;;;;5003207;28;20033;-52
2022/05/20 02:09:18;;;;;;;2.60;1.20;;;24.60;41.00;;;;;;5003316;28;20034;-52
2022/05/20 02:11:53;;;;;;;1.92;1.00;;;24.60;41.10;;;;;;5004314;28;20128;-52
2022/05/20 02:14:47;;;;;;;2.25;0.93;;;24.60;41.10;;;;;;5004892;28;20037;-53
2022/05/20 02:17:34;;;;;;;1.83;0.95;;;24.60;41.00;;;;;;4980417;28;20045;-53
2022/05/20 02:20:13;;;;;;;2.10;0.95;;;24.60;40.80;;;;;;5004102;28;20080;-54
2022/05/20 02:22:46;;;;;;;2.78;0.80;;;24.60;40.90;;;;;;5004233;28;20629;-54
2022/05/20 02:25:17;;;;;;;6.35;1.30;;;24.60;40.80;;;;;;5004343;28;20060;-53
2022/05/20 02:27:48;;;;;;;2.13;0.95;;;24.60;40.80;;;;;;5002656;28;20049;-52
2022/05/20 02:30:18;;;;;;;3.85;1.00;;;24.60;40.70;;;;;;5000759;28;20517;-53
2022/05/20 02:32:52;;;;;;;2.80;1.20;;;24.60;40.80;;;;;;5004252;28;20096;-53
2022/05/20 02:35:18;;;;;;;1.65;0.73;;;24.60;40.90;;;;;;5004209;28;20658;-53
2022/05/20 02:37:44;;;;;;;1.80;0.80;;;24.60;40.90;;;;;;5004007;28;20105;-53
2022/05/20 02:40:13;;;;;;;1.90;0.75;;;24.60;40.90;;;;;;5004539;28;20034;-54
2022/05/20 02:42:38;;;;;;;2.20;0.90;;;24.50;41.00;;;;;;5004202;28;20033;-53
2022/05/20 02:45:05;;;;;;;2.40;1.10;;;24.60;41.70;;;;;;5004094;28;20021;-53
2022/05/20 02:47:33;;;;;;;1.42;0.80;;;24.60;41.00;;;;;;5000736;28;20018;-52
2022/05/20 02:49:59;;;;;;;1.63;0.80;;;24.60;41.00;;;;;;5002391;28;20038;-53
2022/05/20 02:52:25;;;;;;;2.75;1.17;;;24.60;41.00;;;;;;5003790;28;20029;-54
2022/05/20 02:54:51;;;;;;;1.70;0.88;;;24.60;41.10;;;;;;5003512;28;20030;-53
2022/05/20 02:57:16;;;;;;;2.05;0.95;;;24.50;41.10;;;;;;5002394;28;20030;-52
2022/05/20 03:05:12;;;;;;;2.40;1.10;;;24.60;40.90;;;;;;5003428;28;20333;-52
2022/05/20 03:07:38;;;;;;;2.13;1.10;;;24.50;40.80;;;;;;5002882;28;20663;-52
2022/05/20 03:10:04;;;;;;;2.13;1.05;;;24.60;40.70;;;;;;5003289;28;20033;-53
2022/05/20 03:12:29;;;;;;;1.95;0.93;;;24.50;40.80;;;;;;5003350;28;20022;-52
2022/05/20 03:14:55;;;;;;;1.95;1.00;;;24.50;40.70;;;;;;5003923;28;20029;-53
2022/05/20 03:17:21;;;;;;;2.10;0.90;;;24.50;40.80;;;;;;5003616;28;20105;-53
2022/05/20 03:19:47;;;;;;;1.95;0.85;;;24.50;40.90;;;;;;5003014;28;20117;-52
2022/05/20 03:22:13;;;;;;;2.53;1.27;;;24.50;40.90;;;;;;5003485;28;20033;-52
2022/05/20 03:24:39;;;;;;;2.50;0.88;;;24.50;40.90;;;;;;5004028;28;20064;-52
2022/05/20 03:27:05;;;;;;;1.88;0.90;;;24.50;41.00;;;;;;5017725;28;20281;-53
2022/05/20 03:29:32;;;;;;;1.60;0.82;;;24.50;41.00;;;;;;5001166;28;20191;-53
2022/05/20 03:31:58;;;;;;;2.63;0.90;;;24.50;41.10;;;;;;5000193;28;20022;-52
2022/05/20 03:34:24;;;;;;;1.95;0.98;;;24.50;41.00;;;;;;5003686;28;20022;-53
2022/05/20 03:36:50;;;;;;;1.50;0.70;;;24.50;41.10;;;;;;5002579;28;20043;-51
2022/05/20 03:39:20;;;;;;;3.28;1.15;;;24.50;41.00;;;;;;5003480;28;20446;-52
2022/05/20 03:41:47;;;;;;;2.22;1.17;;;24.50;41.10;;;;;;5003756;28;20026;-53
2022/05/20 03:44:14;;;;;;;2.33;1.00;;;24.50;41.10;;;;;;5007161;28;20041;-52
2022/05/20 03:46:46;;;;;;;2.65;1.00;;;24.50;41.20;;;;;;5005844;28;20060;-51
2022/05/20 03:49:13;;;;;;;2.07;1.00;;;24.50;41.10;;;;;;5007024;28;20524;-51
2022/05/20 03:51:39;;;;;;;2.08;0.90;;;24.50;41.00;;;;;;5006496;28;20083;-52
2022/05/20 03:54:05;;;;;;;1.80;1.05;;;24.50;41.00;;;;;;5006950;28;20038;-52
2022/05/20 03:56:32;;;;;;;2.17;1.00;;;24.50;40.90;;;;;;5006941;28;20021;-53
2022/05/20 03:58:57;;;;;;;2.13;0.82;;;24.50;40.90;;;;;;5004681;28;20022;-53
2022/05/20 04:04:08;;;;;;;2.75;1.10;;;24.50;40.80;;;;;;5004817;28;20468;-52
2022/05/20 04:06:34;;;;;;;2.03;0.77;;;24.50;40.80;;;;;;5006471;28;20120;-52
2022/05/20 04:08:59;;;;;;;1.67;0.80;;;24.50;40.90;;;;;;5006310;28;20033;-53
2022/05/20 04:11:27;;;;;;;2.17;0.95;;;24.50;41.00;;;;;;5006751;28;20059;-52
2022/05/20 04:13:53;;;;;;;2.38;0.90;;;24.50;41.10;;;;;;5006926;28;20578;-52
2022/05/20 04:16:19;;;;;;;2.50;1.02;;;24.50;41.10;;;;;;5006618;28;20156;-51
2022/05/20 04:18:45;;;;;;;1.95;0.93;;;24.50;41.10;;;;;;5006209;28;20026;-52
2022/05/20 04:21:13;;;;;;;1.60;0.70;;;24.50;41.10;;;;;;5006200;28;20041;-52
2022/05/20 04:23:39;;;;;;;2.33;1.08;;;24.50;41.20;;;;;;5006273;28;20057;-52
2022/05/20 04:26:05;;;;;;;2.53;1.20;;;24.50;41.20;;;;;;5006480;28;20494;-51
2022/05/20 04:28:31;;;;;;;2.25;0.98;;;24.50;41.30;;;;;;5006300;28;20029;-52
2022/05/20 04:31:00;;;;;;;2.13;0.98;;;24.50;41.20;;;;;;5005067;28;20022;-52
2022/05/20 04:33:26;;;;;;;2.42;1.10;;;24.50;41.20;;;;;;5005708;28;20548;-52
2022/05/20 04:35:52;;;;;;;2.45;1.00;;;24.50;41.00;;;;;;5001542;28;20045;-53
2022/05/20 04:38:18;;;;;;;2.63;1.17;;;24.50;41.00;;;;;;5005702;28;20030;-53
2022/05/20 04:40:44;;;;;;;1.95;0.95;;;24.50;41.00;;;;;;5006030;28;20561;-53
2022/05/20 04:48:39;;;;;;;1.92;0.93;;;24.50;40.90;;;;;;5005475;28;20084;-52
2022/05/20 04:51:05;;;;;;;2.25;0.88;;;24.50;41.00;;;;;;5005803;28;20053;-53
2022/05/20 04:56:15;;;;;;;2.45;1.00;;;24.50;41.10;;;;;;5003518;28;20253;-53
2022/05/20 04:58:41;;;;;;;3.03;1.02;;;24.40;41.00;;;;;;5005336;28;20074;-53
2022/05/20 05:01:07;;;;;;;2.40;1.17;;;24.50;41.20;;;;;;5005149;28;20136;-52
2022/05/20 05:03:33;;;;;;;2.78;1.20;;;24.50;41.20;;;;;;5006328;28;20057;-51
2022/05/20 05:05:59;;;;;;;2.83;1.02;;;24.40;41.90;;;;;;5005620;28;20037;-51
2022/05/20 05:08:25;;;;;;;3.28;1.30;;;24.40;41.20;;;;;;5005044;28;20418;-51
2022/05/20 05:10:52;;;;;;;3.88;1.30;;;24.40;41.20;;;;;;5005943;28;20058;-50
2022/05/20 05:13:18;;;;;;;3.10;1.20;;;24.50;41.40;;;;;;5006238;28;20034;-51
2022/05/20 05:15:44;;;;;;;2.88;1.45;;;24.40;41.50;;;;;;5005694;28;20025;-50
2022/05/20 05:18:14;;;;;;;3.20;1.30;;;24.40;41.60;;;;;;5005055;28;20041;-50
2022/05/20 05:20:50;;;;;;;3.72;1.50;;;24.40;41.60;;;;;;5004432;28;20044;-50
2022/05/20 05:23:16;;;;;;;3.53;1.30;;;24.40;41.70;;;;;;5005515;28;20026;-50
2022/05/20 05:25:43;;;;;;;3.65;1.48;;;24.50;41.90;;;;;;5004862;28;20540;-51
2022/05/20 05:28:09;;;;;;;3.10;1.40;;;24.50;42.20;;;;;;5003678;28;20029;-50
2022/05/20 05:30:36;;;;;;;2.50;1.20;;;24.50;42.00;;;;;;5005034;28;20026;-50
2022/05/20 05:33:02;;;;;;;3.75;1.83;;;24.60;42.00;;;;;;5004220;28;20084;-51
2022/05/20 05:35:32;;;;;;;3.03;1.52;;;24.60;42.00;;;;;;5019713;28;20045;-52
2022/05/20 05:37:58;;;;;;;3.78;1.45;;;24.60;41.80;;;;;;5002879;28;20057;-50
2022/05/20 05:40:27;;;;;;;3.38;1.50;;;24.60;41.90;;;;;;5004544;28;20033;-51
2022/05/20 05:42:55;;;;;;;3.22;1.50;;;24.70;41.90;;;;;;5004199;28;20058;-53
2022/05/20 05:45:23;;;;;;;3.22;1.40;;;24.70;41.90;;;;;;5003203;28;20033;-51
2022/05/20 05:48:00;;;;;;;3.45;1.70;;;24.70;41.80;;;;;;5004756;28;20018;-51
2022/05/20 05:50:28;;;;;;;3.15;1.27;;;24.70;41.70;;;;;;5004221;28;20111;-52
2022/05/20 05:52:58;;;;;;;5.43;2.05;;;24.70;41.70;;;;;;5004589;28;20036;-51
2022/05/20 05:55:26;;;;;;;3.88;1.50;;;24.70;42.00;;;;;;5004231;28;20052;-52
2022/05/20 05:57:51;;;;;;;3.25;1.20;;;24.70;42.40;;;;;;5003750;28;20026;-51
2022/05/20 06:00:17;;;;;;;3.70;1.40;;;24.80;42.40;;;;;;5004141;28;20690;-51
2022/05/20 06:02:43;;;;;;;3.72;1.83;;;24.80;42.40;;;;;;5005673;28;20041;-52
2022/05/20 06:05:09;;;;;;;2.83;1.23;;;24.80;42.50;;;;;;5004246;28;20030;-51
2022/05/20 06:07:34;;;;;;;3.55;1.63;;;24.80;42.50;;;;;;5004414;28;20550;-51
2022/05/20 06:10:00;;;;;;;3.63;1.45;;;24.80;42.50;;;;;;5005124;28;20064;-52
2022/05/20 06:12:27;;;;;;;4.82;1.55;;;24.70;42.40;;;;;;5005010;28;20034;-51
2022/05/20 06:14:53;;;;;;;3.50;1.70;;;24.70;42.40;;;;;;5005057;28;20030;-52
2022/05/20 06:17:19;;;;;;;4.03;1.35;;;24.70;42.40;;;;;;4993985;28;20503;-52
2022/05/20 06:19:45;;;;;;;3.75;1.88;;;24.70;43.50;;;;;;4987790;28;20026;-51
2022/05/20 06:22:10;;;;;;;3.08;1.42;;;24.70;42.70;;;;;;5003967;28;20048;-52
2022/05/20 06:24:37;;;;;;;2.97;1.50;;;24.80;42.70;;;;;;5003762;28;20032;-51
2022/05/20 06:27:04;;;;;;;5.53;2.10;;;24.70;42.60;;;;;;5002207;28;20549;-52
2022/05/20 06:29:29;;;;;;;4.07;1.70;;;24.70;42.70;;;;;;5003991;28;20022;-52
2022/05/20 06:31:55;;;;;;;3.08;1.40;;;24.70;42.70;;;;;;5003407;28;20117;-52
2022/05/20 06:34:21;;;;;;;4.07;1.98;;;24.70;42.80;;;;;;5001373;28;20030;-50
2022/05/20 06:42:29;;;;;;;4.10;1.80;;;24.70;43.30;;;;;;4980633;28;20117;-50
2022/05/20 06:44:55;;;;;;;4.65;1.90;;;24.70;43.50;;;;;;5002939;28;20160;-50
2022/05/20 06:47:21;;;;;;;3.47;1.60;;;24.70;43.50;;;;;;5000327;28;20097;-50
2022/05/20 06:49:46;;;;;;;3.30;1.63;;;24.70;43.50;;;;;;5004676;28;20037;-53
2022/05/20 06:52:13;;;;;;;3.45;1.70;;;24.70;43.40;;;;;;5003487;28;20092;-52
2022/05/20 06:54:39;;;;;;;4.35;1.80;;;24.70;43.30;;;;;;5004514;28;20562;-53
2022/05/20 06:57:05;;;;;;;3.30;1.70;;;24.80;43.10;;;;;;5004688;28;20034;-52
2022/05/20 06:59:30;;;;;;;4.78;1.48;;;24.70;42.90;;;;;;5004023;28;20080;-54
2022/05/20 07:02:00;;;;;;;3.65;1.70;;;24.70;42.90;;;;;;5004954;28;20183;-53
2022/05/20 07:04:29;;;;;;;4.97;1.50;;;24.70;42.80;;;;;;5001480;28;20037;-52
2022/05/20 07:06:56;;;;;;;3.42;1.65;;;24.70;42.80;;;;;;5002404;28;20054;-52
2022/05/20 07:09:22;;;;;;;4.30;1.52;;;24.70;42.70;;;;;;5004269;28;20026;-52
2022/05/20 07:11:47;;;;;;;4.22;1.52;;;24.70;42.70;;;;;;5005793;28;20627;-53
2022/05/20 07:14:13;;;;;;;4.60;1.73;;;24.70;42.60;;;;;;5015348;28;20028;-53
2022/05/20 07:16:39;;;;;;;4.22;1.73;;;24.70;42.70;;;;;;5002353;28;20537;-53
2022/05/20 07:19:05;;;;;;;3.63;1.60;;;24.70;42.70;;;;;;5006908;28;20038;-52
2022/05/20 07:21:31;;;;;;;5.80;1.67;;;24.70;42.60;;;;;;5007757;28;20061;-52
2022/05/20 07:23:57;;;;;;;3.65;1.50;;;24.70;42.70;;;;;;5007671;28;20048;-53
2022/05/20 07:26:23;;;;;;;4.53;1.92;;;24.70;42.70;;;;;;5007756;28;20023;-52
2022/05/20 07:28:48;;;;;;;5.75;1.98;;;24.70;42.70;;;;;;5008093;28;20454;-53
2022/05/20 07:31:15;;;;;;;4.40;1.50;;;24.70;42.60;;;;;;5003003;28;20243;-53
2022/05/20 07:33:43;;;;;;;3.78;1.85;;;24.70;42.70;;;;;;5008250;28;20064;-53
2022/05/20 07:36:08;;;;;;;3.70;1.50;;;24.70;42.70;;;;;;5007203;28;20151;-53
2022/05/20 07:38:35;;;;;;;4.07;1.50;;;24.70;42.60;;;;;;5007873;28;20235;-53
2022/05/20 07:41:01;;;;;;;3.88;1.55;;;24.70;42.70;;;;;;5007797;28;20584;-53
2022/05/20 07:43:26;;;;;;;3.45;1.50;;;24.70;42.70;;;;;;5007854;28;20040;-52
2022/05/20 07:45:53;;;;;;;4.00;1.98;;;24.70;42.70;;;;;;5008107;28;20033;-53
2022/05/20 07:48:20;;;;;;;3.42;1.42;;;24.70;42.80;;;;;;5007839;28;20026;-52
2022/05/20 07:50:50;;;;;;;2.38;1.40;;;24.70;42.80;;;;;;5000817;28;20038;-52
2022/05/20 07:53:21;;;;;;;5.85;1.45;;;24.70;42.90;;;;;;5003650;28;20669;-52
2022/05/20 07:55:59;;;;;;;2.92;1.45;;;24.70;42.90;;;;;;5005547;28;20473;-53
2022/05/20 07:58:28;;;;;;;3.90;1.63;;;24.70;42.90;;;;;;4999466;28;20445;-52
2022/05/20 08:00:58;;;;;;;2.85;1.33;;;24.70;42.90;;;;;;5003645;28;20062;-52
2022/05/20 08:06:14;;;;;;;4.20;1.83;;;24.70;43.00;;;;;;4998130;28;20033;-52
2022/05/20 08:08:40;;;;;;;4.85;1.77;;;24.70;43.20;;;;;;5005882;28;20030;-52
2022/05/20 08:11:06;;;;;;;4.68;1.55;;;24.70;43.20;;;;;;5004940;28;20045;-52
2022/05/20 08:13:32;;;;;;;3.78;1.63;;;24.70;43.20;;;;;;5005380;28;20030;-52
2022/05/20 08:15:58;;;;;;;3.78;1.98;;;24.70;43.20;;;;;;5005299;28;20037;-52
2022/05/20 08:18:23;;;;;;;3.22;1.90;;;24.70;43.30;;;;;;5006327;28;20026;-52
2022/05/20 08:20:49;;;;;;;3.97;1.52;;;24.70;43.30;;;;;;5005226;28;20022;-53
2022/05/20 08:23:16;;;;;;;3.70;1.70;;;24.70;43.10;;;;;;5006448;28;20033;-52
2022/05/20 08:25:41;;;;;;;3.30;1.33;;;24.70;43.10;;;;;;5006581;28;20028;-52
2022/05/20 08:28:07;;;;;;;4.43;1.52;;;24.70;43.30;;;;;;5005761;28;20025;-52
2022/05/20 08:30:33;;;;;;;3.80;1.77;;;24.70;43.30;;;;;;5006287;28;20058;-52
2022/05/20 08:32:59;;;;;;;3.53;1.92;;;24.80;43.30;;;;;;5006295;28;20026;-52
2022/05/20 08:35:27;;;;;;;3.42;1.48;;;24.70;43.30;;;;;;5005912;28;20030;-53
2022/05/20 08:37:54;;;;;;;4.72;1.55;;;24.70;43.30;;;;;;5005359;28;20029;-53
2022/05/20 08:40:36;;;;;;;3.75;1.60;;;24.70;43.40;;;;;;5005670;28;20030;-54
2022/05/20 08:43:02;;;;;;;3.63;1.45;;;24.70;43.70;;;;;;4999881;28;20077;-53
2022/05/20 08:45:29;;;;;;;4.22;2.10;;;24.70;44.10;;;;;;5005577;28;20022;-53
2022/05/20 08:47:56;;;;;;;3.78;1.50;;;24.70;44.20;;;;;;5005370;28;20535;-53
2022/05/20 08:50:44;;;;;;;4.95;1.75;;;24.70;44.30;;;;;;4999698;28;20216;-53
2022/05/20 08:53:36;;;;;;;4.63;1.75;;;24.80;44.60;;;;;;4993535;28;20049;-53
2022/05/20 08:56:05;;;;;;;4.78;1.90;;;24.80;45.20;;;;;;5000925;28;20042;-54
2022/05/20 08:58:32;;;;;;;5.38;2.20;;;24.80;45.50;;;;;;5004995;28;20021;-54
2022/05/20 09:00:57;;;;;;;6.32;2.53;;;24.80;45.80;;;;;;4965756;28;1162461;-53
2022/05/20 09:03:26;;;;;;;5.95;1.90;;;24.80;45.80;;;;;;5006644;28;20030;-53
2022/05/20 09:06:09;;;;;;;4.95;1.95;;;24.80;45.60;;;;;;5004123;28;20576;-54
2022/05/20 09:08:35;;;;;;;5.25;1.80;;;24.80;45.50;;;;;;5005003;28;20022;-53
2022/05/20 09:11:03;;;;;;;5.53;2.15;;;24.80;45.50;;;;;;5005124;28;20033;-53
2022/05/20 09:16:28;;;;;;;3.75;1.65;;;24.80;45.70;;;;;;5004877;28;20025;-54
2022/05/20 09:19:29;;;;;;;4.82;2.10;;;24.80;45.70;;;;;;5005276;28;20552;-54
2022/05/20 09:22:13;;;;;;;4.47;2.10;;;24.80;46.00;;;;;;4953337;28;20051;-53
2022/05/20 09:24:42;;;;;;;4.97;2.05;;;24.80;46.00;;;;;;4999443;28;20580;-53
2022/05/20 09:27:17;;;;;;;4.47;2.13;;;24.80;46.30;;;;;;5000792;28;20026;-53
2022/05/20 09:29:47;;;;;;;4.35;2.03;;;24.80;46.40;;;;;;5004094;28;20089;-53
2022/05/20 09:32:34;;;;;;;4.68;2.08;;;24.80;46.50;;;;;;5003434;28;20018;-53
2022/05/20 09:35:18;;;;;;;3.92;2.22;;;24.90;46.60;;;;;;5003432;28;20122;-54
2022/05/20 09:37:49;;;;;;;3.55;1.75;;;24.90;46.50;;;;;;5004004;28;20049;-54
2022/05/20 09:40:41;;;;;;;5.18;2.30;;;24.90;46.90;;;;;;5004665;28;20088;-53
2022/05/20 09:43:28;;;;;;;4.45;2.10;;;24.90;46.90;;;;;;5005310;28;20105;-54
2022/05/20 09:45:55;;;;;;;3.83;1.50;;;24.90;46.80;;;;;;5004736;28;20119;-54
2022/05/20 09:48:47;;;;;;;6.43;1.85;;;24.90;46.80;;;;;;4996428;28;20041;-53
2022/05/20 09:51:18;;;;;;;4.35;1.52;;;24.90;46.90;;;;;;5001481;28;20441;-51
2022/05/20 09:54:11;;;;;;;3.78;1.70;;;25.00;47.40;;;;;;5005587;28;20034;-54
2022/05/20 09:56:43;;;;;;;3.67;1.50;;;25.00;47.10;;;;;;5004172;28;20029;-54
2022/05/20 09:59:08;;;;;;;5.13;2.13;;;25.00;46.90;;;;;;5001147;28;20071;-54
2022/05/20 10:01:36;;;;;;;4.55;1.42;;;25.00;46.90;;;;;;5003393;28;20034;-55
2022/05/20 10:04:08;;;;;;;3.17;1.60;;;25.00;46.60;;;;;;5000193;28;20076;-55
2022/05/20 10:06:46;;;;;;;4.77;1.70;;;25.10;46.60;;;;;;5004283;28;20053;-54
2022/05/20 10:09:32;;;;;;;2.28;1.33;;;25.10;46.50;;;;;;5005295;28;20287;-54
2022/05/20 10:12:06;;;;;;;3.53;1.30;;;25.10;46.60;;;;;;5005066;28;20033;-54
2022/05/20 10:14:52;;;;;;;2.80;1.55;;;25.10;46.60;;;;;;5000073;28;20064;-49
2022/05/20 10:17:33;;;;;;;3.83;1.88;;;25.10;46.50;;;;;;4988294;28;20102;-50
2022/05/20 10:20:12;;;;;;;3.20;1.63;;;25.20;46.80;;;;;;4991124;28;20033;-49
2022/05/20 10:22:56;;;;;;;3.10;1.80;;;25.20;47.00;;;;;;5004992;28;20030;-49
2022/05/20 10:25:31;;;;;;;4.10;1.70;;;25.20;46.90;;;;;;5005330;28;20021;-53
2022/05/20 10:34:16;;;;;;;3.75;1.50;;;25.30;47.70;;;;;;4999331;28;20413;-53
2022/05/20 10:37:10;;;;;;;3.78;2.15;;;25.40;47.50;;;;;;4998202;28;20038;-54
2022/05/20 10:39:51;;;;;;;3.00;1.77;;;25.40;47.30;;;;;;4997575;28;20109;-53
2022/05/20 10:42:22;;;;;;;3.80;1.77;;;25.40;47.00;;;;;;5000732;28;20022;-52
2022/05/20 10:48:34;;;;;;;3.42;1.90;;;25.40;46.60;;;;;;5001193;28;20100;-52
2022/05/20 10:51:35;;;;;;;3.65;1.80;;;25.40;47.30;;;;;;5004037;28;20030;-54
2022/05/20 10:54:04;;;;;;;2.80;1.38;;;25.40;48.20;;;;;;4999331;28;20030;-55
2022/05/20 10:56:58;;;;;;;3.42;1.80;;;25.40;47.60;;;;;;5004675;28;20720;-54
2022/05/20 10:59:48;;;;;;;3.00;1.60;;;25.40;47.30;;;;;;4996403;28;20676;-54
2022/05/20 11:02:41;;;;;;;3.83;2.03;;;25.40;47.60;;;;;;4996934;28;20256;-54
2022/05/20 11:05:26;;;;;;;;;;;25.40;48.10;;;;;;4997969;28;20017;-53
2022/05/20 11:08:10;;;;;;;4.93;1.92;;;25.40;47.80;;;;;;5002999;28;19913;-55
2022/05/20 11:10:59;;;;;;;3.80;2.00;;;25.40;47.50;;;;;;4998219;28;20029;-54
2022/05/20 11:13:52;;;;;;;3.83;2.13;;;25.50;48.00;;;;;;4997187;28;20042;-54
2022/05/20 11:16:44;;;;;;;2.55;1.50;;;25.50;48.80;;;;;;4989870;28;20041;-54
2022/05/20 11:19:25;;;;;;;3.60;2.10;;;25.50;48.70;;;;;;4997889;28;20045;-53
2022/05/20 11:21:56;;;;;;;4.30;2.22;;;25.50;49.40;;;;;;4996311;28;20038;-53
2022/05/20 11:24:44;;;;;;;2.58;1.58;;;25.60;49.20;;;;;;5000681;28;20069;-51
2022/05/20 11:27:34;;;;;;;3.03;1.73;;;25.50;48.60;;;;;;4998646;28;20037;-57
2022/05/20 11:30:19;;;;;;;3.90;1.90;;;25.60;48.40;;;;;;5001278;28;20045;-56
2022/05/20 11:33:10;;;;;;;3.15;2.10;;;25.60;48.00;;;;;;5004207;28;20109;-56
2022/05/20 11:35:59;;;;;;;5.03;1.95;;;25.60;47.20;;;;;;5002737;28;20548;-55
2022/05/20 11:38:43;;;;;;;3.95;2.10;;;25.60;47.40;;;;;;5000837;28;20486;-52
2022/05/20 11:41:37;;;;;;;4.50;2.33;;;25.70;48.00;;;;;;4999786;28;20027;-52
2022/05/20 11:44:18;;;;;;;2.97;1.70;;;25.70;47.70;;;;;;4979580;28;20398;-54
2022/05/20 11:47:01;;;;;;;3.60;2.10;;;25.70;48.30;;;;;;5004160;28;20062;-53
2022/05/20 11:50:11;;;;;;;3.53;1.70;;;25.70;48.00;;;;;;5004419;28;20037;-53
2022/05/20 11:53:01;;;;;;;4.20;2.08;;;25.80;48.20;;;;;;4983657;28;20030;-52
2022/05/20 11:55:39;;;;;;;3.60;2.17;;;25.80;48.20;;;;;;5001884;28;20708;-53
2022/05/20 11:58:17;;;;;;;4.20;2.22;;;25.80;48.70;;;;;;5017114;28;20034;-52
2022/05/20 12:00:44;;;;;;;3.58;2.10;;;25.80;49.40;;;;;;4998849;28;20045;-52
2022/05/20 12:03:17;;;;;;;3.20;1.92;;;25.90;49.60;;;;;;4999415;28;20541;-52
2022/05/20 12:05:47;;;;;;;3.10;2.10;;;25.90;49.00;;;;;;5006889;28;20258;-53
2022/05/20 12:08:38;;;;;;;3.00;1.88;;;25.90;49.40;;;;;;4998699;28;20076;-53
2022/05/20 12:11:37;;;;;;;3.25;1.90;;;26.00;49.40;;;;;;5004790;28;20045;-53
2022/05/20 12:14:14;;;;;;;3.17;1.88;;;26.00;49.00;;;;;;5006924;28;20026;-54
2022/05/20 12:16:59;;;;;;;3.10;2.00;;;26.00;49.30;;;;;;5005463;28;20034;-53
2022/05/20 12:25:38;;;;;;;3.88;2.10;;;26.10;49.50;;;;;;4995267;28;20041;-51
2022/05/20 12:28:31;;;;;;;6.60;2.45;;;26.20;48.60;;;;;;4995028;28;20495;-54
2022/05/20 12:31:19;;;;;;;4.70;2.20;;;26.10;49.40;;;;;;5001858;28;20054;-53
2022/05/20 12:34:05;;;;;;;3.30;2.13;;;26.20;49.00;;;;;;4995077;28;20038;-52
2022/05/20 12:36:36;;;;;;;3.45;2.20;;;26.20;49.10;;;;;;4991670;28;20030;-51
2022/05/20 12:39:07;;;;;;;4.78;2.85;;;26.30;49.50;;;;;;5001079;28;20018;-53
2022/05/20 12:41:37;;;;;;;5.75;2.80;;;26.30;49.90;;;;;;5001832;28;20498;-52
2022/05/20 12:44:21;;;;;;;5.28;3.00;;;26.30;50.10;;;;;;4997056;28;20086;-54
2022/05/20 12:46:57;;;;;;;5.28;3.42;;;26.40;49.90;;;;;;4995882;28;20015;-54
2022/05/20 12:49:26;;;;;;;4.15;2.97;;;26.40;49.90;;;;;;4997100;28;20030;-53
2022/05/20 12:51:54;;;;;;;3.67;2.22;;;26.40;49.50;;;;;;5001853;28;20349;-53
2022/05/20 12:54:26;;;;;;;4.13;2.58;;;26.50;47.70;;;;;;5003589;28;20061;-52
2022/05/20 12:56:54;;;;;;;;;;;26.50;46.80;;;;;;4993175;28;20233;-52
2022/05/20 12:59:22;;;;;;;3.38;2.10;;;26.60;46.80;;;;;;5000371;28;19925;-53
2022/05/20 13:01:57;;;;;;;3.95;2.55;;;26.60;45.90;;;;;;4996130;28;20022;-52
2022/05/20 13:04:28;;;;;;;3.47;2.38;;;26.60;46.40;;;;;;4998144;28;20041;-52
2022/05/20 13:06:56;;;;;;;2.97;2.20;;;26.70;45.70;;;;;;4999527;28;20105;-52
2022/05/20 13:09:25;;;;;;;3.40;2.20;;;26.80;44.80;;;;;;5005683;28;20030;-52
2022/05/20 13:11:51;;;;;;;3.95;2.78;;;26.80;44.90;;;;;;4996509;28;20022;-52
2022/05/20 13:14:20;;;;;;;3.90;2.58;;;26.80;44.20;;;;;;4996306;28;20406;-53
2022/05/20 13:16:55;;;;;;;3.40;2.30;;;26.90;44.80;;;;;;4997338;28;20072;-53
2022/05/20 13:19:29;;;;;;;4.47;2.30;;;26.90;45.10;;;;;;4998787;28;20113;-52
2022/05/20 13:22:03;;;;;;;4.57;2.75;;;26.90;43.80;;;;;;5003065;28;20712;-48
2022/05/20 13:24:33;;;;;;;3.97;2.40;;;27.00;45.60;;;;;;5005230;28;20075;-50
2022/05/20 13:27:11;;;;;;;3.55;2.15;;;27.00;46.00;;;;;;5000976;28;20049;-50
2022/05/20 13:29:38;;;;;;;3.75;2.20;;;27.00;45.10;;;;;;5005651;28;20022;-50
2022/05/20 13:32:21;;;;;;;3.35;2.13;;;27.10;45.00;;;;;;5005532;28;20030;-49
2022/05/20 13:34:51;;;;;;;3.87;2.40;;;27.10;45.10;;;;;;5005493;28;20034;-49
2022/05/20 13:37:45;;;;;;;3.58;2.28;;;27.10;44.70;;;;;;5003478;28;20973;-50
2022/05/20 13:40:18;;;;;;;3.03;2.00;;;27.10;43.90;;;;;;5004892;28;20036;-51
2022/05/20 13:42:53;;;;;;;3.53;2.50;;;27.20;44.30;;;;;;5005544;28;20501;-50
2022/05/20 13:51:10;;;;;;;3.47;2.50;;;27.20;45.60;;;;;;5004417;28;20109;-50
2022/05/20 13:53:40;;;;;;;4.20;2.65;;;27.20;45.60;;;;;;5005192;28;20061;-49
2022/05/20 13:56:08;;;;;;;3.83;2.70;;;27.20;45.50;;;;;;5004861;28;20060;-51
2022/05/20 13:58:35;;;;;;;3.10;2.40;;;27.20;45.30;;;;;;5004530;28;20036;-51
2022/05/20 14:01:03;;;;;;;3.85;2.30;;;27.20;46.20;;;;;;5004591;28;20124;-53
2022/05/20 14:03:39;;;;;;;3.80;2.28;;;27.20;45.80;;;;;;5002119;28;20032;-48